Time;durP1;ratioP1;P1;durP2;ratioP2;P2;SDS_P1;SDS_P2;PMS_P1;PMS_P2;Temp;Humidity;BMP_temperature;BMP_pressure;BME280_temperature;BME280_humidity;BME280_pressure;Samples;Min_cycle;Max_cycle;Signal;HPM_P1;HPM_P2
2022/06/27 00:01:23;;;;;;;9.95;6.63;;;;;;;22.84;48.90;101424.56;5074328;28;20485;-59
2022/06/27 00:03:49;;;;;;;6.40;4.18;;;;;;;22.86;48.62;101421.56;5073680;28;20016;-58
2022/06/27 00:06:19;;;;;;;6.78;3.25;;;;;;;22.83;49.05;101422.13;5073912;28;20039;-59
2022/06/27 00:08:50;;;;;;;7.38;4.60;;;;;;;22.71;49.05;101416.94;5073010;28;20517;-59
2022/06/27 00:11:18;;;;;;;8.48;5.85;;;;;;;22.75;48.76;101419.91;5074063;28;20037;-60
2022/06/27 00:13:45;;;;;;;9.88;5.38;;;;;;;22.51;49.17;101417.72;5072314;28;20050;-59
2022/06/27 00:16:11;;;;;;;6.25;3.60;;;;;;;22.21;49.90;101417.69;5065093;28;20370;-59
2022/06/27 00:18:38;;;;;;;6.10;3.20;;;;;;;21.93;51.39;101410.75;5069455;28;20488;-58
2022/06/27 00:21:04;;;;;;;6.43;3.30;;;;;;;22.08;50.94;101413.53;5074086;28;20025;-58
2022/06/27 00:23:30;;;;;;;6.15;2.55;;;;;;;22.14;51.38;101404.31;5070580;28;20036;-58
2022/06/27 00:25:57;;;;;;;8.00;3.63;;;;;;;22.02;51.39;101411.88;5072461;28;20025;-59
2022/06/27 00:28:23;;;;;;;6.18;3.55;;;;;;;21.80;51.49;101414.81;5072878;28;20464;-58
2022/06/27 00:30:49;;;;;;;7.95;3.65;;;;;;;21.70;51.92;101421.03;5068995;22;20053;-59
2022/06/27 00:33:15;;;;;;;8.77;2.70;;;;;;;21.27;52.18;101420.28;5053804;28;20056;-58
2022/06/27 00:35:41;;;;;;;10.20;3.28;;;;;;;20.81;54.64;101421.84;5051084;28;20068;-61
2022/06/27 00:38:07;;;;;;;5.70;2.40;;;;;;;20.91;53.19;101419.19;5053472;28;20179;-60
2022/06/27 00:40:34;;;;;;;5.93;3.70;;;;;;;21.12;54.15;101414.72;5053587;28;20040;-61
2022/06/27 00:43:00;;;;;;;9.93;3.00;;;;;;;21.11;53.69;101409.53;5051585;28;20118;-61
2022/06/27 00:45:27;;;;;;;7.07;2.70;;;;;;;21.24;53.27;101409.88;5052521;28;20025;-59
2022/06/27 00:47:53;;;;;;;5.88;2.38;;;;;;;21.14;54.61;101407.09;5040137;28;20025;-58
2022/06/27 00:50:20;;;;;;;7.40;2.55;;;;;;;21.08;54.56;101408.16;5033172;28;20037;-58
2022/06/27 00:52:46;;;;;;;6.20;2.60;;;;;;;20.77;53.93;101402.50;5051794;28;20386;-58
2022/06/27 00:55:13;;;;;;;4.75;2.22;;;;;;;20.69;54.73;101399.44;5052521;28;20029;-58
2022/06/27 00:57:40;;;;;;;5.50;2.45;;;;;;;20.63;54.66;101390.41;5053362;28;20044;-57
2022/06/27 01:00:07;;;;;;;7.18;1.90;;;;;;;20.72;54.98;101398.94;5044687;28;20069;-58
2022/06/27 01:02:34;;;;;;;9.57;2.80;;;;;;;20.61;54.98;101389.03;5033702;28;20032;-57
2022/06/27 01:05:00;;;;;;;4.93;2.22;;;;;;;20.49;55.88;101384.59;5049982;28;20041;-58
2022/06/27 01:07:26;;;;;;;4.43;1.90;;;;;;;20.22;56.47;101379.16;5052680;28;20099;-58
2022/06/27 01:09:54;;;;;;;6.97;1.95;;;;;;;20.26;56.46;101380.25;5051332;28;20362;-60
2022/06/27 01:12:21;;;;;;;6.90;2.00;;;;;;;20.33;57.18;101379.25;5051134;28;20500;-56
2022/06/27 01:14:47;;;;;;;6.72;2.65;;;;;;;19.93;57.07;101386.75;5049280;28;20857;-55
2022/06/27 01:17:14;;;;;;;5.65;2.10;;;;;;;20.17;56.76;101381.81;5046973;28;20025;-55
2022/06/27 01:19:40;;;;;;;5.68;1.60;;;;;;;20.34;56.64;101387.16;5051322;28;20028;-56
2022/06/27 01:22:11;;;;;;;6.03;2.10;;;;;;;20.08;56.23;101383.34;5051038;28;20036;-56
2022/06/27 01:24:37;;;;;;;6.43;1.95;;;;;;;20.04;56.54;101388.50;5033382;28;20036;-56
2022/06/27 01:27:05;;;;;;;3.90;1.70;;;;;;;19.94;57.42;101382.13;5033025;28;20105;-56
2022/06/27 01:29:32;;;;;;;6.05;2.00;;;;;;;19.92;57.13;101385.06;5035671;28;20029;-57
2022/06/27 01:31:58;;;;;;;3.30;1.60;;;;;;;19.47;58.48;101377.19;5032999;28;20026;-56
2022/06/27 01:34:25;;;;;;;4.25;2.20;;;;;;;19.49;58.31;101388.63;5049761;28;20131;-56
2022/06/27 01:36:51;;;;;;;6.40;2.22;;;;;;;19.69;58.70;101383.47;5052726;28;20488;-57
2022/06/27 01:39:25;;;;;;;9.70;2.53;;;;;;;19.78;57.57;101390.09;5051793;28;20041;-55
2022/06/27 01:41:56;;;;;;;6.00;2.08;;;;;;;19.30;59.07;101389.97;5051648;28;20119;-56
2022/06/27 01:44:25;;;;;;;4.88;2.13;;;;;;;19.49;58.38;101384.00;5052654;28;20029;-56
2022/06/27 01:47:05;;;;;;;6.07;2.17;;;;;;;19.40;58.43;101392.84;5049594;28;20049;-56
2022/06/27 01:49:34;;;;;;;6.03;2.25;;;;;;;19.44;59.33;101388.56;5052153;28;20103;-56
2022/06/27 01:52:01;;;;;;;5.07;2.88;;;;;;;19.68;58.14;101392.69;5051313;28;20478;-56
2022/06/27 01:54:29;;;;;;;5.57;2.20;;;;;;;19.18;59.25;101393.63;5052868;28;20033;-56
2022/06/27 01:56:56;;;;;;;8.50;2.58;;;;;;;19.28;59.30;101394.84;5072342;28;20013;-55
2022/06/27 01:59:25;;;;;;;6.65;2.30;;;;;;;19.36;58.72;101405.25;5063005;28;20032;-56
2022/06/27 02:01:52;;;;;;;5.00;1.98;;;;;;;19.51;58.22;101400.03;5052614;28;20536;-55
2022/06/27 02:04:18;;;;;;;4.18;2.00;;;;;;;19.65;58.06;101401.31;5052299;28;20060;-55
2022/06/27 02:06:46;;;;;;;4.80;2.03;;;;;;;19.67;57.69;101403.81;5042093;28;20523;-54
2022/06/27 02:09:14;;;;;;;8.05;2.22;;;;;;;19.45;58.38;101403.78;5046634;28;20040;-51
2022/06/27 02:11:42;;;;;;;4.85;1.95;;;;;;;19.50;58.15;101403.84;5049113;28;20526;-55
2022/06/27 02:14:09;;;;;;;6.60;2.30;;;;;;;19.68;58.09;101403.56;5048273;28;20127;-47
2022/06/27 02:16:35;;;;;;;3.53;2.22;;;;;;;19.71;57.75;101408.50;5051462;28;20028;-49
2022/06/27 02:19:02;;;;;;;5.90;2.17;;;;;;;19.96;56.76;101413.38;5051002;28;20473;-49
2022/06/27 02:21:31;;;;;;;7.97;2.72;;;;;;;20.00;56.74;101416.44;5051695;28;20053;-49
2022/06/27 02:23:59;;;;;;;7.15;2.30;;;;;;;19.73;57.40;101414.47;5051867;28;20044;-48
2022/06/27 02:26:31;;;;;;;7.80;2.50;;;;;;;19.57;57.28;101426.19;5050304;28;20067;-52
2022/06/27 02:28:59;;;;;;;3.97;2.33;;;;;;;19.77;56.98;101423.78;5047580;28;20502;-51
2022/06/27 02:31:27;;;;;;;4.43;2.05;;;;;;;19.75;57.21;101423.19;5051294;28;20049;-51
2022/06/27 02:33:55;;;;;;;5.75;2.35;;;;;;;19.69;57.00;101426.91;5050583;28;20162;-52
2022/06/27 02:36:41;;;;;;;8.77;2.50;;;;;;;19.48;57.96;101422.25;5051964;28;20113;-50
2022/06/27 02:39:10;;;;;;;7.07;2.17;;;;;;;19.43;58.05;101424.91;5050469;28;20045;-54
2022/06/27 02:41:40;;;;;;;6.93;2.47;;;;;;;19.33;58.21;101427.50;5050716;28;20223;-48
2022/06/27 02:44:11;;;;;;;9.05;2.35;;;;;;;18.82;59.84;101443.81;5051279;28;20116;-52
2022/06/27 02:46:41;;;;;;;7.88;2.60;;;;;;;18.47;60.97;101446.69;5050802;28;20469;-49
2022/06/27 02:49:08;;;;;;;9.73;2.65;;;;;;;18.48;60.92;101434.78;5031713;28;20037;-51
2022/06/27 02:52:07;;;;;;;8.32;2.40;;;;;;;18.45;61.07;101441.53;5031798;28;20359;-50
2022/06/27 02:54:47;;;;;;;8.27;2.70;;;;;;;18.55;60.52;101448.19;5031958;28;20075;-50
2022/06/27 02:57:16;;;;;;;10.70;3.20;;;;;;;18.54;60.51;101438.41;5034507;28;20105;-52
2022/06/27 02:59:45;;;;;;;7.05;2.85;;;;;;;18.47;60.46;101446.69;5052808;28;20036;-50
2022/06/27 03:02:15;;;;;;;7.13;2.20;;;;;;;18.37;61.46;101446.50;5052227;28;20108;-47
2022/06/27 03:04:41;;;;;;;7.28;2.92;;;;;;;17.90;62.55;101457.53;5034811;28;20040;-51
2022/06/27 03:07:07;;;;;;;5.45;2.90;;;;;;;17.90;62.38;101449.41;5037154;28;20033;-51
2022/06/27 03:09:34;;;;;;;9.57;2.72;;;;;;;17.41;63.83;101456.97;5043332;28;20030;-47
2022/06/27 03:12:00;;;;;;;12.43;3.10;;;;;;;17.32;64.25;101461.94;5035764;28;20037;-48
2022/06/27 03:14:26;;;;;;;6.60;2.75;;;;;;;17.39;64.31;101454.50;5055022;28;20570;-50
2022/06/27 03:16:54;;;;;;;9.65;3.13;;;;;;;17.08;65.19;101454.84;5054843;28;20056;-47
2022/06/27 03:19:20;;;;;;;8.63;2.80;;;;;;;17.00;65.70;101456.03;5046027;28;20025;-50
2022/06/27 03:21:47;;;;;;;6.78;2.85;;;;;;;16.86;65.64;101458.13;5037245;28;20029;-52
2022/06/27 03:24:13;;;;;;;9.65;3.60;;;;;;;16.54;66.58;101462.94;5035689;28;20033;-52
2022/06/27 03:26:39;;;;;;;11.48;4.22;;;;;;;16.45;67.04;101458.94;5064290;28;20056;-50
2022/06/27 03:29:05;;;;;;;7.72;3.35;;;;;;;16.15;68.38;101468.88;5074511;28;20062;-48
2022/06/27 03:31:31;;;;;;;7.57;3.90;;;;;;;15.96;69.13;101458.13;5061828;28;20057;-47
2022/06/27 03:33:58;;;;;;;9.18;3.85;;;;;;;15.87;69.38;101456.78;5054758;28;20028;-49
2022/06/27 03:36:24;;;;;;;8.88;3.42;;;;;;;15.54;70.48;101455.22;5054755;28;20029;-51
2022/06/27 03:38:50;;;;;;;9.32;3.38;;;;;;;15.40;71.17;101464.53;5054527;28;20372;-51
2022/06/27 03:41:17;;;;;;;7.97;3.70;;;;;;;15.38;71.43;101463.94;5054499;28;20103;-50
2022/06/27 03:43:44;;;;;;;5.53;3.00;;;;;;;15.27;71.82;101464.66;5054990;28;20044;-52
2022/06/27 03:46:10;;;;;;;13.63;4.35;;;;;;;15.26;71.74;101465.69;5054193;28;20029;-48
2022/06/27 03:51:20;;;;;;;11.82;4.25;;;;;;;14.96;73.45;101460.16;5054736;28;20393;-47
2022/06/27 03:53:46;;;;;;;12.98;4.10;;;;;;;14.87;74.13;101472.25;5054260;28;20029;-51
2022/06/27 03:56:13;;;;;;;11.35;4.45;;;;;;;14.94;73.97;101476.56;5060559;28;20059;-50
2022/06/27 03:58:39;;;;;;;12.13;4.25;;;;;;;14.90;74.11;101483.41;5044413;28;20052;-46
2022/06/27 04:01:05;;;;;;;10.82;4.97;;;;;;;14.79;74.51;101486.81;5034841;28;20037;-47
2022/06/27 04:03:31;;;;;;;14.85;5.57;;;;;;;14.92;74.22;101491.28;5073931;28;20099;-46
2022/06/27 04:05:57;;;;;;;13.15;4.95;;;;;;;14.84;74.78;101492.38;5054425;28;20103;-47
2022/06/27 04:08:24;;;;;;;13.52;4.75;;;;;;;14.86;74.60;101497.53;5053921;28;20100;-47
2022/06/27 04:10:50;;;;;;;11.25;4.65;;;;;;;14.84;74.86;101502.34;5053909;28;20103;-47
2022/06/27 04:13:16;;;;;;;13.80;5.38;;;;;;;14.83;75.02;101501.53;5053585;28;20017;-48
2022/06/27 04:15:42;;;;;;;17.38;4.63;;;;;;;14.83;75.08;101503.38;5053850;28;20491;-47
2022/06/27 04:18:09;;;;;;;11.00;5.10;;;;;;;14.77;75.43;101508.59;5053717;28;20047;-50
2022/06/27 04:20:35;;;;;;;8.93;4.35;;;;;;;14.64;75.76;101499.75;5054282;28;20017;-49
2022/06/27 04:23:06;;;;;;;13.73;5.28;;;;;;;14.72;75.90;101507.59;5053573;28;20082;-48
2022/06/27 04:25:32;;;;;;;12.88;4.40;;;;;;;14.80;75.74;101512.72;5066579;28;20082;-48
2022/06/27 04:27:58;;;;;;;11.52;4.97;;;;;;;14.77;75.58;101510.47;5058905;28;20029;-49
2022/06/27 04:30:25;;;;;;;16.63;5.38;;;;;;;14.71;75.82;101514.88;5053640;28;20045;-49
2022/06/27 04:32:52;;;;;;;13.55;4.53;;;;;;;14.64;76.09;101521.31;5053759;28;20028;-49
2022/06/27 04:35:18;;;;;;;17.17;5.10;;;;;;;14.62;76.14;101526.09;5053378;28;20021;-50
2022/06/27 04:37:45;;;;;;;16.85;4.97;;;;;;;14.68;76.08;101533.31;5053314;28;20033;-49
2022/06/27 04:40:12;;;;;;;10.52;4.30;;;;;;;14.65;76.15;101531.88;5053564;28;20029;-51
2022/06/27 04:42:40;;;;;;;12.70;4.53;;;;;;;14.62;76.18;101529.63;5053436;28;20021;-50
2022/06/27 04:45:12;;;;;;;9.73;4.75;;;;;;;14.64;75.76;101527.53;5054051;28;20021;-52
2022/06/27 04:47:42;;;;;;;12.55;4.50;;;;;;;14.64;76.01;101532.09;5053263;28;20615;-50
2022/06/27 04:50:10;;;;;;;15.32;4.95;;;;;;;14.63;75.78;101549.31;5053650;28;20033;-50
2022/06/27 04:52:41;;;;;;;11.32;4.50;;;;;;;14.64;75.87;101553.66;5053405;28;20021;-51
2022/06/27 04:55:08;;;;;;;11.70;4.53;;;;;;;14.67;75.27;101564.00;5052932;28;20082;-51
2022/06/27 04:57:36;;;;;;;13.20;4.45;;;;;;;14.57;75.82;101559.06;5046667;28;20460;-52
2022/06/27 05:00:08;;;;;;;18.50;5.40;;;;;;;14.61;75.69;101564.88;5035286;28;20112;-52
2022/06/27 05:02:35;;;;;;;13.55;4.78;;;;;;;14.58;75.64;101570.69;5053161;28;20052;-49
2022/06/27 05:05:03;;;;;;;14.32;4.70;;;;;;;14.52;75.96;101570.50;5051240;28;20028;-50
2022/06/27 05:07:30;;;;;;;12.27;4.05;;;;;;;14.47;76.28;101570.31;5052658;28;20043;-50
2022/06/27 05:09:59;;;;;;;10.50;3.92;;;;;;;14.51;75.45;101582.31;5051704;28;20102;-47
2022/06/27 05:12:26;;;;;;;10.82;4.43;;;;;;;14.45;75.72;101576.94;5032793;28;20108;-51
2022/06/27 05:14:54;;;;;;;12.38;4.25;;;;;;;14.42;75.74;101586.25;5032941;28;20029;-48
2022/06/27 05:17:21;;;;;;;14.55;4.28;;;;;;;14.35;76.18;101577.38;5049815;28;20063;-52
2022/06/27 05:19:48;;;;;;;12.48;4.55;;;;;;;14.29;76.30;101575.53;5052656;28;20032;-52
2022/06/27 05:22:14;;;;;;;11.77;3.60;;;;;;;14.37;76.08;101585.22;5050942;28;20033;-53
2022/06/27 05:24:41;;;;;;;13.65;4.50;;;;;;;14.38;75.88;101581.50;5050196;28;20071;-51
2022/06/27 05:27:09;;;;;;;13.70;4.82;;;;;;;14.27;76.25;101585.69;5052308;28;20033;-51
2022/06/27 05:29:36;;;;;;;18.13;5.32;;;;;;;14.33;76.22;101590.22;5050742;28;20033;-50
2022/06/27 05:32:03;;;;;;;8.82;4.53;;;;;;;14.33;76.35;101597.50;5052646;28;20334;-51
2022/06/27 05:34:30;;;;;;;10.98;4.40;;;;;;;14.27;76.29;101591.91;5051166;28;20033;-51
2022/06/27 05:36:56;;;;;;;7.55;3.55;;;;;;;14.19;76.12;101594.00;5051060;28;20393;-49
2022/06/27 05:39:22;;;;;;;8.60;4.10;;;;;;;14.18;76.23;101606.63;5049802;28;20029;-51
2022/06/27 05:41:48;;;;;;;10.13;4.15;;;;;;;14.18;76.25;101601.25;5050908;28;20029;-52
2022/06/27 05:44:15;;;;;;;12.18;3.97;;;;;;;14.14;76.16;101607.25;5051375;28;20813;-51
2022/06/27 05:46:41;;;;;;;17.13;4.50;;;;;;;14.08;76.45;101600.03;5052569;28;20036;-50
2022/06/27 05:49:11;;;;;;;13.57;4.38;;;;;;;14.03;77.04;101602.53;5051084;28;20025;-49
2022/06/27 05:51:38;;;;;;;9.73;3.97;;;;;;;14.09;77.06;101601.66;5052147;28;20477;-49
2022/06/27 05:54:05;;;;;;;11.00;4.22;;;;;;;14.09;77.24;101596.28;5051012;28;20025;-49
2022/06/27 05:56:33;;;;;;;10.95;5.15;;;;;;;14.16;76.95;101597.13;5031908;28;20036;-48
2022/06/27 05:59:00;;;;;;;14.15;4.78;;;;;;;14.17;77.03;101590.69;5042442;28;20033;-51
2022/06/27 06:01:27;;;;;;;16.08;4.93;;;;;;;14.17;76.83;101594.22;5051734;28;20446;-52
2022/06/27 06:03:53;;;;;;;14.45;4.57;;;;;;;14.12;76.73;101593.19;5049240;28;20036;-50
2022/06/27 06:06:19;;;;;;;9.20;3.92;;;;;;;14.13;76.47;101592.97;5051020;28;20028;-51
2022/06/27 06:08:46;;;;;;;15.73;5.13;;;;;;;14.12;76.41;101582.41;5048112;28;20373;-49
2022/06/27 06:11:15;;;;;;;9.32;4.25;;;;;;;14.16;76.36;101586.34;5051459;28;20449;-48
2022/06/27 06:13:43;;;;;;;14.63;4.53;;;;;;;14.06;76.47;101588.66;5050422;28;20025;-48
2022/06/27 06:16:10;;;;;;;14.05;4.43;;;;;;;14.02;76.97;101584.72;5049865;28;20565;-47
2022/06/27 06:18:37;;;;;;;15.25;5.00;;;;;;;14.04;77.02;101582.63;5051378;28;20033;-48
2022/06/27 06:21:04;;;;;;;12.07;4.45;;;;;;;14.02;77.28;101588.22;5049899;28;20052;-49
2022/06/27 06:23:32;;;;;;;11.63;4.38;;;;;;;13.98;77.03;101592.38;5050234;28;20102;-50
2022/06/27 06:25:59;;;;;;;11.00;4.35;;;;;;;13.96;76.93;101586.38;5048632;28;20024;-49
2022/06/27 06:28:30;;;;;;;17.83;5.05;;;;;;;13.92;77.34;101588.66;5050910;28;20035;-51
2022/06/27 06:30:56;;;;;;;17.92;4.65;;;;;;;13.91;77.42;101583.50;5049097;28;20053;-51
2022/06/27 06:33:23;;;;;;;14.32;4.30;;;;;;;13.84;77.78;101590.75;5050955;28;20025;-48
2022/06/27 06:35:49;;;;;;;12.40;4.47;;;;;;;13.89;77.72;101583.72;5051471;28;20029;-48
2022/06/27 06:38:15;;;;;;;11.63;5.93;;;;;;;13.87;77.91;101583.06;5049697;28;20032;-49
2022/06/27 06:40:42;;;;;;;11.68;4.65;;;;;;;13.78;78.48;101592.44;5051569;28;20051;-49
2022/06/27 06:43:08;;;;;;;10.73;4.47;;;;;;;13.74;78.31;101591.19;5050038;28;20093;-47
2022/06/27 06:45:35;;;;;;;18.50;4.82;;;;;;;13.87;77.47;101579.56;5051383;28;20048;-51
2022/06/27 06:48:02;;;;;;;16.02;5.65;;;;;;;13.86;77.74;101586.81;5049534;28;20078;-48
2022/06/27 06:50:28;;;;;;;12.43;5.00;;;;;;;13.83;77.74;101587.25;5051404;28;20413;-50
2022/06/27 06:52:55;;;;;;;16.10;5.13;;;;;;;13.87;77.76;101585.78;5049770;28;20021;-48
2022/06/27 06:55:22;;;;;;;12.10;5.05;;;;;;;13.54;79.13;101590.34;5051247;28;20053;-48
2022/06/27 06:57:49;;;;;;;18.20;5.53;;;;;;;13.64;78.76;101588.06;5049257;28;20079;-51
2022/06/27 07:00:17;;;;;;;13.80;5.03;;;;;;;13.65;78.84;101587.84;5051289;28;20626;-52
2022/06/27 07:02:43;;;;;;;25.35;6.43;;;;;;;13.76;78.34;101589.09;5049703;28;20025;-49
2022/06/27 07:05:11;;;;;;;13.73;5.28;;;;;;;13.81;77.71;101580.41;5049565;28;20055;-46
2022/06/27 07:07:43;;;;;;;11.20;4.55;;;;;;;13.76;77.94;101578.34;5050687;28;20104;-48
2022/06/27 07:10:12;;;;;;;22.25;5.57;;;;;;;13.88;77.73;101576.69;5050191;28;20040;-52
2022/06/27 07:12:40;;;;;;;13.65;4.88;;;;;;;13.78;77.65;101586.22;5049356;28;20025;-51
2022/06/27 07:15:09;;;;;;;9.95;4.55;;;;;;;13.73;77.98;101581.47;5051286;28;20385;-52
2022/06/27 07:17:41;;;;;;;12.63;4.60;;;;;;;13.67;78.15;101587.69;5049463;28;20418;-48
2022/06/27 07:20:09;;;;;;;9.68;4.05;;;;;;;13.67;78.31;101591.19;5049760;28;20017;-48
2022/06/27 07:22:35;;;;;;;16.10;5.32;;;;;;;13.80;77.96;101587.66;5051045;28;20093;-48
2022/06/27 07:25:02;;;;;;;16.70;5.05;;;;;;;13.82;78.06;101584.75;5049761;28;20067;-48
2022/06/27 07:27:28;;;;;;;12.52;5.47;;;;;;;13.83;78.29;101581.88;5050466;28;20031;-48
2022/06/27 07:29:54;;;;;;;13.38;4.90;;;;;;;13.86;77.89;101580.59;5049484;28;20041;-48
2022/06/27 07:32:20;;;;;;;8.70;4.63;;;;;;;13.84;77.54;101578.13;5051157;28;20021;-48
2022/06/27 07:34:47;;;;;;;11.55;5.28;;;;;;;13.89;77.11;101578.34;5048203;28;20025;-48
2022/06/27 07:37:14;;;;;;;12.52;4.07;;;;;;;13.97;77.19;101580.78;5049160;28;20036;-49
2022/06/27 07:39:40;;;;;;;12.05;4.78;;;;;;;13.99;77.15;101573.34;5049758;28;20117;-48
2022/06/27 07:42:07;;;;;;;16.65;5.13;;;;;;;14.01;77.13;101575.81;5050996;28;20123;-51
2022/06/27 07:44:34;;;;;;;12.60;4.65;;;;;;;14.03;77.19;101589.88;5049041;28;20477;-47
2022/06/27 07:47:03;;;;;;;11.23;4.30;;;;;;;13.90;76.86;101579.16;5052488;28;20036;-47
2022/06/27 07:49:30;;;;;;;10.32;4.20;;;;;;;13.96;76.67;101581.00;5053211;28;20036;-49
2022/06/27 07:51:57;;;;;;;10.35;4.05;;;;;;;13.98;76.72;101587.00;5054188;28;20029;-49
2022/06/27 07:54:25;;;;;;;10.25;4.30;;;;;;;13.98;76.23;101582.44;5052365;28;20056;-47
2022/06/27 07:56:52;;;;;;;13.15;4.30;;;;;;;14.00;76.49;101583.06;5046090;28;20059;-48
2022/06/27 07:59:18;;;;;;;11.25;4.10;;;;;;;14.00;76.06;101584.94;5043188;28;20044;-47
2022/06/27 08:01:45;;;;;;;10.52;4.20;;;;;;;13.99;76.14;101584.13;5051888;28;20519;-49
2022/06/27 08:04:14;;;;;;;15.52;4.05;;;;;;;14.03;76.42;101584.50;5054228;28;20474;-50
2022/06/27 08:06:41;;;;;;;7.60;3.67;;;;;;;14.03;76.22;101583.69;5052297;28;20040;-49
2022/06/27 08:09:09;;;;;;;9.93;4.05;;;;;;;14.05;76.09;101586.97;5053808;28;20029;-48
2022/06/27 08:11:38;;;;;;;13.88;4.00;;;;;;;14.00;76.18;101590.31;5052235;28;20107;-48
2022/06/27 08:14:11;;;;;;;10.43;3.75;;;;;;;14.09;75.66;101589.03;5052340;28;20036;-52
2022/06/27 08:16:41;;;;;;;10.85;3.97;;;;;;;14.02;76.01;101587.41;5052185;28;20382;-52
2022/06/27 08:19:09;;;;;;;10.65;3.67;;;;;;;13.94;75.65;101586.59;5053412;28;20029;-50
2022/06/27 08:21:37;;;;;;;7.93;3.63;;;;;;;13.92;76.61;101585.16;5052368;28;20033;-51
2022/06/27 08:24:11;;;;;;;12.50;3.55;;;;;;;14.02;76.24;101587.41;5053864;28;20025;-50
2022/06/27 08:26:38;;;;;;;10.48;4.10;;;;;;;14.10;75.94;101584.47;5052318;28;20067;-49
2022/06/27 08:29:05;;;;;;;7.82;3.70;;;;;;;14.18;75.67;101581.56;5053352;28;20029;-51
2022/06/27 08:31:33;;;;;;;8.55;3.58;;;;;;;14.18;75.61;101574.31;5051760;28;20049;-48
2022/06/27 08:34:03;;;;;;;5.85;3.22;;;;;;;14.25;75.19;101577.00;5053737;28;20029;-51
2022/06/27 08:36:35;;;;;;;8.13;3.58;;;;;;;14.31;74.97;101570.75;5052177;28;20078;-48
2022/06/27 08:39:07;;;;;;;6.97;3.55;;;;;;;14.34;74.73;101573.03;5051964;28;20617;-51
2022/06/27 08:41:35;;;;;;;13.00;3.25;;;;;;;14.33;74.80;101571.38;5053258;28;20033;-48
2022/06/27 08:44:04;;;;;;;8.40;3.38;;;;;;;14.28;75.01;101568.50;5050915;28;20052;-51
2022/06/27 08:46:31;;;;;;;10.05;3.72;;;;;;;14.30;74.92;101569.09;5053373;28;20033;-50
2022/06/27 08:48:58;;;;;;;6.68;3.22;;;;;;;14.37;74.63;101574.47;5050796;28;20029;-50
2022/06/27 08:51:25;;;;;;;10.82;3.08;;;;;;;14.42;74.30;101572.78;5053285;28;20545;-50
2022/06/27 08:53:54;;;;;;;5.78;3.10;;;;;;;14.30;74.82;101570.97;5052019;28;20043;-49
2022/06/27 08:56:22;;;;;;;8.00;3.20;;;;;;;14.27;74.75;101569.53;5049680;28;20029;-52
2022/06/27 08:58:49;;;;;;;8.70;3.47;;;;;;;14.29;74.75;101572.00;5033944;28;20362;-52
2022/06/27 09:01:19;;;;;;;5.38;3.03;;;;;;;14.28;74.78;101576.56;5053294;28;20025;-48
2022/06/27 09:04:06;;;;;;;10.40;3.55;;;;;;;14.33;74.51;101579.47;5050748;28;20043;-51
2022/06/27 09:06:54;;;;;;;7.20;3.40;;;;;;;14.41;74.25;101571.13;5053171;28;20051;-49
2022/06/27 09:09:23;;;;;;;5.63;3.08;;;;;;;14.40;74.13;101572.19;5051456;28;20488;-53
2022/06/27 09:11:49;;;;;;;8.18;3.38;;;;;;;14.45;73.94;101566.97;5052896;28;20493;-53
2022/06/27 09:14:33;;;;;;;7.13;2.95;;;;;;;14.43;74.22;101565.53;5051761;28;20029;-52
2022/06/27 09:17:04;;;;;;;6.88;3.58;;;;;;;14.46;74.21;101563.25;5065649;23;20057;-52
2022/06/27 09:19:52;;;;;;;8.10;3.38;;;;;;;14.45;74.58;101566.97;5071206;28;20024;-49
2022/06/27 09:22:19;;;;;;;7.90;3.85;;;;;;;14.49;74.33;101570.94;5072956;28;20056;-52
2022/06/27 09:25:00;;;;;;;8.00;3.45;;;;;;;14.31;74.84;101567.22;5071310;28;20089;-52
2022/06/27 09:27:40;;;;;;;7.28;3.15;;;;;;;14.34;74.99;101573.03;5070671;28;20024;-52
2022/06/27 09:30:22;;;;;;;6.57;3.35;;;;;;;14.29;74.63;101574.72;5069343;28;20032;-52
2022/06/27 09:32:59;;;;;;;7.40;3.38;;;;;;;14.35;74.56;101566.59;5072039;28;20024;-51
2022/06/27 09:35:34;;;;;;;6.03;3.15;;;;;;;14.35;74.77;101569.28;5071411;28;20028;-52
2022/06/27 09:38:08;;;;;;;7.25;3.10;;;;;;;14.32;74.78;101568.88;5070881;28;20028;-53
2022/06/27 09:40:36;;;;;;;9.77;3.17;;;;;;;14.26;74.87;101578.63;5072538;28;20029;-51
2022/06/27 09:43:03;;;;;;;7.95;3.35;;;;;;;14.15;75.25;101574.72;5070611;28;20127;-52
2022/06/27 09:45:30;;;;;;;10.82;3.30;;;;;;;14.23;75.28;101568.31;5072139;28;20426;-48
2022/06/27 09:48:02;;;;;;;7.30;3.17;;;;;;;14.12;75.43;101571.66;5070810;28;20067;-49
2022/06/27 09:50:32;;;;;;;6.72;2.95;;;;;;;14.20;75.04;101574.09;5072408;28;20020;-49
2022/06/27 09:53:00;;;;;;;7.80;3.15;;;;;;;14.24;75.04;101569.94;5070027;28;20420;-50
2022/06/27 09:55:27;;;;;;;5.43;3.25;;;;;;;14.29;74.72;101570.16;5072345;28;20038;-48
2022/06/27 09:57:55;;;;;;;8.98;2.70;;;;;;;14.28;74.99;101571.19;5060335;28;20025;-49
2022/06/27 10:00:22;;;;;;;5.55;2.55;;;;;;;14.13;75.71;101573.31;5069569;28;20106;-49
2022/06/27 10:02:51;;;;;;;4.38;2.60;;;;;;;14.05;76.00;101573.50;5071789;28;20350;-48
2022/06/27 10:05:19;;;;;;;6.65;2.63;;;;;;;14.06;76.06;101570.63;5070347;28;20060;-50
2022/06/27 10:08:02;;;;;;;6.22;3.08;;;;;;;14.07;76.59;101571.47;5051013;28;20505;-51
2022/06/27 10:10:53;;;;;;;6.95;3.05;;;;;;;13.99;76.83;101577.88;5054540;28;20029;-53
2022/06/27 10:13:19;;;;;;;5.53;2.92;;;;;;;13.96;76.85;101571.06;5061402;28;20635;-52
2022/06/27 10:15:49;;;;;;;10.65;2.95;;;;;;;13.91;77.28;101572.72;5070200;28;20469;-49
2022/06/27 10:18:16;;;;;;;6.97;3.00;;;;;;;13.85;78.00;101570.88;5071293;28;20505;-51
2022/06/27 10:20:47;;;;;;;7.22;3.15;;;;;;;13.85;78.12;101577.09;5070875;28;20036;-51
2022/06/27 10:23:18;;;;;;;7.15;3.10;;;;;;;13.82;77.81;101577.50;5071672;28;20017;-52
2022/06/27 10:25:48;;;;;;;7.15;2.70;;;;;;;13.77;77.88;101580.00;5070364;28;20048;-50
2022/06/27 10:28:15;;;;;;;3.97;2.42;;;;;;;13.79;78.16;101583.31;5071425;28;20032;-51
2022/06/27 10:30:52;;;;;;;5.28;2.75;;;;;;;13.81;78.27;101578.53;5061629;28;20021;-52
2022/06/27 10:33:21;;;;;;;5.90;2.90;;;;;;;13.85;78.41;101587.03;5061010;28;20032;-49
2022/06/27 10:36:02;;;;;;;5.20;2.80;;;;;;;13.90;78.02;101588.06;5071398;28;20471;-49
2022/06/27 10:38:28;;;;;;;10.38;2.90;;;;;;;13.91;78.09;101584.31;5069712;28;20029;-51
2022/06/27 10:40:56;;;;;;;5.95;2.80;;;;;;;13.90;78.15;101587.22;5071365;28;20036;-48
2022/06/27 10:43:45;;;;;;;4.22;2.90;;;;;;;13.83;78.63;101584.56;5070240;28;20068;-48
2022/06/27 10:46:11;;;;;;;5.28;2.80;;;;;;;13.73;78.28;101581.47;5071420;28;20507;-50
2022/06/27 10:48:42;;;;;;;5.55;3.75;;;;;;;13.78;78.01;101584.34;5069930;28;20113;-48
2022/06/27 10:51:27;;;;;;;5.95;3.58;;;;;;;13.77;77.74;101590.78;5069842;28;20051;-49
2022/06/27 10:53:59;;;;;;;4.90;3.72;;;;;;;13.68;78.16;101586.63;5069533;28;20039;-47
2022/06/27 10:56:36;;;;;;;7.63;3.95;;;;;;;13.70;78.21;101584.56;5069791;28;20033;-47
2022/06/27 10:59:27;;;;;;;9.38;5.00;;;;;;;13.73;78.07;101579.59;5071083;28;20025;-48
2022/06/27 11:02:00;;;;;;;8.38;3.75;;;;;;;13.81;78.15;101592.00;5070000;28;20037;-48
2022/06/27 11:04:27;;;;;;;7.40;3.72;;;;;;;13.84;77.81;101596.97;5071355;28;20041;-48
2022/06/27 11:07:05;;;;;;;6.30;3.42;;;;;;;13.79;77.96;101588.69;5069608;28;20063;-47
2022/06/27 11:09:41;;;;;;;4.22;3.00;;;;;;;13.81;78.13;101583.91;5071366;28;20024;-48
2022/06/27 11:12:10;;;;;;;5.32;3.63;;;;;;;13.83;77.89;101587.25;5069692;28;20039;-48
2022/06/27 11:14:59;;;;;;;3.53;3.22;;;;;;;13.86;77.65;101588.69;5071008;28;20036;-48
2022/06/27 11:17:40;;;;;;;6.60;3.20;;;;;;;13.84;77.29;101586.19;5069691;28;20053;-48
2022/06/27 11:20:25;;;;;;;4.35;3.22;;;;;;;13.79;77.26;101583.31;5071556;28;20025;-48
2022/06/27 11:22:57;;;;;;;6.10;3.67;;;;;;;13.72;77.58;101582.50;5074940;28;20485;-49
2022/06/27 11:25:27;;;;;;;7.05;3.88;;;;;;;13.76;77.70;101572.94;5069887;28;20500;-50
2022/06/27 11:27:53;;;;;;;4.07;3.40;;;;;;;13.68;77.93;101575.88;5071170;28;20035;-49
2022/06/27 11:33:32;;;;;;;4.32;2.88;;;;;;;13.84;77.01;101578.13;5069444;28;20040;-52
2022/06/27 11:35:59;;;;;;;4.75;2.83;;;;;;;13.91;76.98;101578.13;5074655;28;20052;-53